Huvudsida
METAR-TAF:

METAR-TAF

Flygplatser :

Capri, Italien

latitud: 40-33N, longitud: 014-12E, höjd: 160 m

Aktuellt väderrapport

Denna rapport gjordes för 54 minuter sedan, klockan 13:55 UTC
Vind 1 kt från väst
Temperatur 29°C
Fuktighet 52%
Tryck 1020 hPa
Sikt 10 km eller mer
Spridda moln på en höjd av 4100 ft

METAR: LIQC 261355Z 26001KT 9999 SCT041 29/18 Q1020 RMK SCT QUK 1 QUL 0 VIS MAR 25 KM VIS MIN 9999

Tid: 16:49 (14:49 UTC)


TAF: saknas

Aktuella väderrapporter och prognoser från 4000 flygplatser (METAR- och TAF-rapporter).

De tillgängliga stationerna syns som gula och röda prickar på kartan.

För musen över prickarna för att se namnen på stationerna.

Klicka sedan för att få väderrapporter och prognoser.

För att ändra kartan: Klicka på de gröna knapparna med ett svart kors på för att zooma in; den gröna knappen med ett streck på för att zooma ut; eller på de gröna pilarna för angränsande kartor.


METAR-TAF: